Time;durP1;ratioP1;P1;durP2;ratioP2;P2;SDS_P1;SDS_P2;PMS_P1;PMS_P2;Temp;Humidity;BMP_temperature;BMP_pressure;BME280_temperature;BME280_humidity;BME280_pressure;Samples;Min_cycle;Max_cycle;Signal;HPM_P1;HPM_P2
2022/01/19 00:00:53;;;;;;;21.17;8.00;;;;;3.50;102630.00;;;;5070775;28;20605;-72
2022/01/19 00:03:40;;;;;;;18.73;8.23;;;;;3.30;102656.00;;;;5071572;28;20229;-71
2022/01/19 00:06:26;;;;;;;19.00;8.80;;;;;3.30;102658.00;;;;5070055;28;20423;-71
2022/01/19 00:09:12;;;;;;;17.03;8.27;;;;;3.20;102650.00;;;;5071432;28;20234;-72
2022/01/19 00:11:59;;;;;;;19.33;7.83;;;;;3.30;102652.00;;;;5065280;28;20233;-72
2022/01/19 00:14:45;;;;;;;21.07;8.90;;;;;3.40;102645.00;;;;5072166;28;20234;-72
2022/01/19 00:17:32;;;;;;;19.43;9.77;;;;;3.20;102646.00;;;;5071441;28;20243;-72
2022/01/19 00:20:18;;;;;;;26.83;10.43;;;;;3.20;102655.00;;;;5072168;28;20219;-72
2022/01/19 00:23:06;;;;;;;26.83;10.33;;;;;3.00;102642.00;;;;5066219;28;20283;-73
2022/01/19 00:25:54;;;;;;;18.70;9.60;;;;;3.00;102629.00;;;;5071530;28;20587;-72
2022/01/19 00:28:40;;;;;;;21.60;8.53;;;;;3.10;102619.00;;;;5071064;28;20216;-72
2022/01/19 00:31:26;;;;;;;26.33;8.87;;;;;3.10;102589.00;;;;5065142;28;20408;-72
2022/01/19 00:34:14;;;;;;;23.87;9.07;;;;;3.00;102574.00;;;;5056590;28;20235;-72
2022/01/19 00:37:00;;;;;;;28.10;10.60;;;;;3.00;102557.00;;;;5062565;28;20256;-73
2022/01/19 00:39:46;;;;;;;24.17;9.77;;;;;3.00;102542.00;;;;5056400;28;20224;-70
2022/01/19 00:42:33;;;;;;;23.20;9.40;;;;;2.80;102553.00;;;;5058478;28;20231;-72
2022/01/19 00:45:19;;;;;;;20.27;9.47;;;;;2.90;102549.00;;;;5056376;28;20227;-73
2022/01/19 00:48:05;;;;;;;23.03;10.20;;;;;2.90;102550.00;;;;5050860;28;20387;-72
2022/01/19 00:50:53;;;;;;;24.10;9.43;;;;;2.70;102550.00;;;;5060071;28;20223;-70
2022/01/19 00:53:39;;;;;;;21.63;8.53;;;;;2.60;102550.00;;;;5060552;28;20293;-72
2022/01/19 00:56:27;;;;;;;20.63;8.97;;;;;2.60;102556.00;;;;5059603;28;20265;-72
2022/01/19 00:59:13;;;;;;;20.80;9.27;;;;;2.70;102554.00;;;;5058512;28;20232;-72
2022/01/19 01:01:59;;;;;;;18.90;8.63;;;;;2.60;102538.00;;;;5057198;28;20314;-72
2022/01/19 01:04:46;;;;;;;23.07;9.67;;;;;2.80;102533.00;;;;5056700;28;20259;-71
2022/01/19 01:07:38;;;;;;;22.13;9.37;;;;;2.50;102527.00;;;;5061931;28;20716;-74
2022/01/19 01:10:24;;;;;;;20.03;9.00;;;;;2.50;102522.00;;;;5053175;28;20232;-71
2022/01/19 01:13:23;;;;;;;25.53;10.50;;;;;2.50;102519.00;;;;5062189;28;20305;-72
2022/01/19 01:16:17;;;;;;;22.20;9.37;;;;;2.30;102510.00;;;;5058521;28;20233;-70
2022/01/19 01:19:06;;;;;;;22.10;9.23;;;;;2.40;102514.00;;;;5054564;28;20245;-71
2022/01/19 01:21:52;;;;;;;24.17;9.30;;;;;2.40;102503.00;;;;5064958;28;20298;-70
2022/01/19 01:24:40;;;;;;;24.57;8.97;;;;;2.40;102502.00;;;;5073894;28;20306;-70
2022/01/19 01:27:26;;;;;;;23.77;9.77;;;;;2.30;102501.00;;;;5057256;28;20734;-70
2022/01/19 01:30:13;;;;;;;21.63;9.57;;;;;2.30;102513.00;;;;5066556;28;20248;-71
2022/01/19 01:32:59;;;;;;;21.27;8.57;;;;;2.30;102502.00;;;;5061006;28;20289;-70
2022/01/19 01:35:45;;;;;;;18.77;8.43;;;;;2.20;102465.00;;;;5059601;28;20711;-71
2022/01/19 01:38:32;;;;;;;21.97;10.00;;;;;2.30;102485.00;;;;5067008;28;20232;-72
2022/01/19 01:41:30;;;;;;;19.57;8.87;;;;;2.30;102471.00;;;;5064988;28;20236;-71
2022/01/19 01:44:16;;;;;;;22.83;9.70;;;;;2.30;102449.00;;;;5066758;28;20306;-72
2022/01/19 01:47:02;;;;;;;18.90;7.97;;;;;2.30;102430.00;;;;5066981;28;20231;-70
2022/01/19 01:55:58;;;;;;;20.63;8.70;;;;;2.20;102456.00;;;;5061823;28;20243;-71
2022/01/19 01:58:48;;;;;;;20.50;8.30;;;;;2.00;102464.00;;;;5058602;28;20220;-70
2022/01/19 02:01:34;;;;;;;20.63;9.00;;;;;2.00;102481.00;;;;5066240;28;20785;-71
2022/01/19 02:04:23;;;;;;;17.93;8.33;;;;;2.00;102478.00;;;;5055996;28;20227;-73
2022/01/19 02:07:32;;;;;;;24.30;9.40;;;;;2.00;102456.00;;;;5059954;28;20231;-72
2022/01/19 02:10:32;;;;;;;17.43;7.67;;;;;2.00;102445.00;;;;5054330;28;20224;-72
2022/01/19 02:16:27;;;;;;;16.00;7.57;;;;;2.10;102452.00;;;;5037027;28;20321;-71
2022/01/19 02:22:19;;;;;;;19.80;8.43;;;;;2.00;102454.00;;;;5066051;28;20789;-71
2022/01/19 02:25:06;;;;;;;15.43;6.97;;;;;1.90;102439.00;;;;5066509;28;20228;-71
2022/01/19 02:31:47;;;;;;;17.53;7.20;;;;;2.00;102417.00;;;;5053778;28;20228;-71
2022/01/19 02:40:33;;;;;;;17.00;6.57;;;;;1.80;102418.00;;;;5071666;28;20228;-72
2022/01/19 02:43:25;;;;;;;13.97;7.27;;;;;1.80;102393.00;;;;5062907;28;20278;-73
2022/01/19 02:49:16;;;;;;;18.70;6.83;;;;;1.90;102378.00;;;;5061959;28;20232;-72
2022/01/19 02:52:03;;;;;;;14.50;6.37;;;;;1.80;102376.00;;;;5060298;28;20309;-72
2022/01/19 02:54:51;;;;;;;13.23;6.63;;;;;1.80;102364.00;;;;5058888;28;20251;-73
2022/01/19 02:57:38;;;;;;;16.07;7.27;;;;;1.80;102327.00;;;;5065628;28;20239;-70
2022/01/19 03:09:35;;;;;;;13.33;6.97;;;;;1.50;102335.00;;;;5065309;28;20298;-73
2022/01/19 03:12:23;;;;;;;14.97;7.10;;;;;1.50;102325.00;;;;5065293;28;20236;-70
2022/01/19 03:15:11;;;;;;;19.43;7.73;;;;;1.60;102336.00;;;;5065308;28;20231;-71
2022/01/19 03:17:59;;;;;;;16.30;6.63;;;;;1.40;102333.00;;;;5061344;28;20227;-71
2022/01/19 03:20:45;;;;;;;18.10;7.33;;;;;1.50;102334.00;;;;5057300;28;20224;-72
2022/01/19 03:23:31;;;;;;;20.27;7.57;;;;;1.50;102325.00;;;;5062353;28;20224;-71
2022/01/19 03:26:19;;;;;;;16.03;7.50;;;;;1.60;102325.00;;;;5062875;28;20768;-74
2022/01/19 03:29:06;;;;;;;19.63;7.37;;;;;1.60;102312.00;;;;5064166;28;20228;-73
2022/01/19 03:31:52;;;;;;;15.00;6.50;;;;;1.60;102301.00;;;;5064751;28;20228;-71
2022/01/19 03:34:40;;;;;;;21.03;7.60;;;;;1.50;102299.00;;;;5064438;28;21912;-70
2022/01/19 03:37:26;;;;;;;17.33;6.77;;;;;1.60;102285.00;;;;5055932;28;20282;-71
2022/01/19 03:40:14;;;;;;;19.23;7.30;;;;;1.60;102285.00;;;;5061744;28;20223;-70
2022/01/19 03:43:00;;;;;;;19.13;7.77;;;;;1.60;102291.00;;;;5061123;28;20236;-70
2022/01/19 03:45:52;;;;;;;23.73;8.37;;;;;1.70;102291.00;;;;5058524;28;20326;-71
2022/01/19 03:48:43;;;;;;;15.57;7.10;;;;;1.60;102279.00;;;;5065717;28;20589;-71
2022/01/19 03:51:31;;;;;;;18.57;7.33;;;;;1.70;102269.00;;;;5064666;28;20235;-72
2022/01/19 03:54:17;;;;;;;16.37;7.50;;;;;1.70;102255.00;;;;5065493;28;20234;-71
2022/01/19 03:57:05;;;;;;;17.57;7.57;;;;;1.80;102262.00;;;;5063915;28;20910;-69
2022/01/19 03:59:51;;;;;;;13.27;7.13;;;;;1.80;102248.00;;;;5062029;28;20239;-71
2022/01/19 04:02:40;;;;;;;18.23;7.63;;;;;1.90;102231.00;;;;5064058;28;20243;-71
2022/01/19 04:05:39;;;;;;;16.57;7.07;;;;;2.00;102238.00;;;;5064560;28;20227;-71
2022/01/19 04:08:25;;;;;;;19.87;6.60;;;;;2.20;102238.00;;;;5062161;28;20294;-70
2022/01/19 04:11:12;;;;;;;15.67;7.83;;;;;2.40;102250.00;;;;5064534;28;20354;-72
2022/01/19 04:14:21;;;;;;;15.10;6.87;;;;;2.40;102246.00;;;;5060837;28;20231;-71
2022/01/19 04:17:09;;;;;;;14.70;7.43;;;;;2.50;102232.00;;;;5063252;28;20238;-71
2022/01/19 04:20:00;;;;;;;19.70;7.20;;;;;2.50;102233.00;;;;5066945;28;20229;-70
2022/01/19 04:22:46;;;;;;;16.47;7.53;;;;;2.60;102230.00;;;;5062536;28;20231;-72
2022/01/19 04:25:32;;;;;;;12.33;6.40;;;;;2.50;102167.00;;;;5067434;28;20338;-72
2022/01/19 04:28:19;;;;;;;16.90;7.60;;;;;2.70;102208.00;;;;5068246;28;20240;-72
2022/01/19 04:31:05;;;;;;;19.83;8.17;;;;;2.80;102213.00;;;;5067961;28;20279;-71
2022/01/19 04:33:51;;;;;;;14.40;7.70;;;;;2.90;102205.00;;;;5064235;28;20707;-73
2022/01/19 04:37:09;;;;;;;13.30;7.73;;;;;2.90;102211.00;;;;5067553;28;20256;-72
2022/01/19 04:49:16;;;;;;;15.73;7.70;;;;;3.20;102174.00;;;;5062084;28;20245;-71
2022/01/19 05:04:33;;;;;;;14.20;8.03;;;;;3.60;102146.00;;;;5063536;28;20717;-71
2022/01/19 05:07:26;;;;;;;13.67;8.17;;;;;3.70;102134.00;;;;5064360;28;20228;-71
2022/01/19 05:13:31;;;;;;;17.00;8.47;;;;;3.70;102127.00;;;;5064105;28;20235;-72
2022/01/19 05:16:18;;;;;;;17.20;9.37;;;;;3.90;102129.00;;;;5068182;28;20734;-73
2022/01/19 05:19:05;;;;;;;15.23;9.60;;;;;3.90;102106.00;;;;5066486;28;20223;-71
2022/01/19 05:21:51;;;;;;;17.80;9.97;;;;;3.90;102120.00;;;;5062820;28;20297;-73
2022/01/19 05:24:39;;;;;;;15.50;8.97;;;;;3.90;102112.00;;;;5067087;28;20587;-72
2022/01/19 05:27:25;;;;;;;16.53;10.33;;;;;4.10;102127.00;;;;5063549;28;20242;-72
2022/01/19 05:30:12;;;;;;;17.67;9.93;;;;;4.10;102127.00;;;;5067076;28;20247;-71
2022/01/19 05:32:58;;;;;;;14.17;9.00;;;;;4.00;102134.00;;;;5061198;28;20310;-69
2022/01/19 05:35:45;;;;;;;14.20;8.80;;;;;4.00;102139.00;;;;5064766;28;20215;-74
2022/01/19 05:38:31;;;;;;;14.30;9.23;;;;;3.90;102110.00;;;;5065866;28;20368;-72
2022/01/19 05:41:19;;;;;;;16.17;9.63;;;;;4.00;102103.00;;;;5064885;28;20301;-72
2022/01/19 05:44:06;;;;;;;17.30;10.57;;;;;4.20;102089.00;;;;5067468;28;20268;-73
2022/01/19 05:46:52;;;;;;;21.73;10.27;;;;;4.40;102083.00;;;;5067575;28;20832;-73
2022/01/19 05:49:38;;;;;;;20.97;11.37;;;;;4.30;102030.00;;;;5066978;28;20570;-71
2022/01/19 05:52:24;;;;;;;19.73;11.00;;;;;4.40;102069.00;;;;5065979;28;20299;-73
2022/01/19 05:55:11;;;;;;;18.53;10.63;;;;;4.50;102060.00;;;;5067371;28;20243;-71
2022/01/19 05:57:59;;;;;;;16.33;10.47;;;;;4.50;102060.00;;;;5065287;28;20263;-71
2022/01/19 06:00:45;;;;;;;18.37;11.37;;;;;4.50;102074.00;;;;5059740;28;20219;-72
2022/01/19 06:03:32;;;;;;;16.50;10.23;;;;;4.60;102055.00;;;;5065465;28;20330;-71
2022/01/19 06:06:18;;;;;;;15.97;9.87;;;;;4.70;102057.00;;;;5066966;28;20359;-73
2022/01/19 06:09:10;;;;;;;17.40;10.67;;;;;4.70;102048.00;;;;5067391;28;20223;-73
2022/01/19 06:11:57;;;;;;;19.40;10.40;;;;;4.60;102053.00;;;;5066621;28;20236;-74
2022/01/19 06:14:45;;;;;;;18.37;11.07;;;;;4.50;102065.00;;;;5060592;28;20225;-72
2022/01/19 06:17:32;;;;;;;18.57;11.60;;;;;4.50;102061.00;;;;5065200;28;20751;-74
2022/01/19 06:20:18;;;;;;;21.50;11.37;;;;;4.50;102056.00;;;;5061318;28;20228;-73
2022/01/19 06:23:05;;;;;;;20.13;11.30;;;;;4.60;102077.00;;;;5062698;28;20236;-72
2022/01/19 06:25:51;;;;;;;24.10;13.63;;;;;4.60;102069.00;;;;5056096;28;20335;-73
2022/01/19 06:28:37;;;;;;;20.37;11.43;;;;;4.40;102082.00;;;;5065331;28;20294;-70
2022/01/19 06:31:26;;;;;;;20.33;11.97;;;;;4.30;102080.00;;;;5063675;28;20282;-71
2022/01/19 06:34:12;;;;;;;22.67;12.93;;;;;4.40;102069.00;;;;5065628;28;20253;-72
2022/01/19 06:36:59;;;;;;;22.33;12.87;;;;;4.60;102076.00;;;;5060221;28;20231;-71
2022/01/19 06:39:45;;;;;;;27.63;14.47;;;;;4.70;102076.00;;;;5064577;28;20232;-71
2022/01/19 06:42:31;;;;;;;24.10;13.47;;;;;4.70;102069.00;;;;5065611;28;20730;-68
2022/01/19 06:45:18;;;;;;;26.03;13.77;;;;;4.70;102062.00;;;;5063030;28;20804;-71
2022/01/19 06:48:06;;;;;;;26.70;14.10;;;;;4.80;102056.00;;;;5063110;28;20232;-72
2022/01/19 06:50:52;;;;;;;25.00;12.30;;;;;4.70;102061.00;;;;5058918;28;20227;-73
2022/01/19 06:53:38;;;;;;;25.40;13.30;;;;;4.70;102050.00;;;;5064844;28;20231;-71
2022/01/19 06:56:25;;;;;;;25.53;12.70;;;;;4.70;102052.00;;;;5064693;28;20235;-72
2022/01/19 06:59:11;;;;;;;20.73;12.33;;;;;4.80;102046.00;;;;5061340;28;20309;-70
2022/01/19 07:01:57;;;;;;;23.33;13.07;;;;;4.80;102024.00;;;;5063463;28;20796;-73
2022/01/19 07:04:49;;;;;;;21.13;12.47;;;;;4.80;102020.00;;;;5065503;28;20346;-71
2022/01/19 07:07:36;;;;;;;25.67;13.47;;;;;4.70;102008.00;;;;5057883;28;20226;-73
2022/01/19 07:10:23;;;;;;;22.37;12.43;;;;;4.80;101987.00;;;;5069623;28;20942;-72
2022/01/19 07:13:09;;;;;;;24.40;12.40;;;;;4.90;102016.00;;;;5061675;28;20227;-72
2022/01/19 07:15:55;;;;;;;22.53;11.13;;;;;4.90;102019.00;;;;5071250;28;20231;-71
2022/01/19 07:18:42;;;;;;;19.27;11.37;;;;;4.90;102004.00;;;;5065308;28;20234;-73
2022/01/19 07:21:30;;;;;;;19.73;11.27;;;;;4.90;102011.00;;;;5064884;28;20742;-71
2022/01/19 07:24:16;;;;;;;16.77;10.70;;;;;4.80;102013.00;;;;5065690;28;20250;-72
2022/01/19 07:27:03;;;;;;;20.23;11.40;;;;;4.90;101996.00;;;;5065655;28;20269;-71
2022/01/19 07:29:49;;;;;;;22.47;12.57;;;;;4.90;101988.00;;;;5060602;28;20592;-71
2022/01/19 07:32:36;;;;;;;21.17;12.60;;;;;4.90;101988.00;;;;5064567;28;20231;-72
2022/01/19 07:35:22;;;;;;;23.80;12.90;;;;;4.90;101967.00;;;;5066056;28;20239;-69
2022/01/19 07:38:09;;;;;;;20.90;11.50;;;;;5.00;101973.00;;;;5064968;28;20305;-72
2022/01/19 07:40:56;;;;;;;25.57;13.00;;;;;5.00;101970.00;;;;5059940;28;20235;-74
2022/01/19 07:43:43;;;;;;;23.77;12.03;;;;;4.90;101967.00;;;;5057316;28;20723;-72
2022/01/19 07:46:29;;;;;;;20.20;11.73;;;;;4.90;101961.00;;;;5065388;28;20227;-73
2022/01/19 07:49:16;;;;;;;21.77;11.93;;;;;4.80;101963.00;;;;5065953;28;20299;-72
2022/01/19 07:52:02;;;;;;;21.27;11.97;;;;;4.80;101965.00;;;;5063543;28;20305;-72
2022/01/19 07:54:50;;;;;;;19.63;11.10;;;;;4.80;101969.00;;;;5065941;28;20734;-71
2022/01/19 07:57:37;;;;;;;23.17;12.03;;;;;4.80;101971.00;;;;5069064;28;20602;-71
2022/01/19 08:00:24;;;;;;;21.53;12.50;;;;;4.80;101978.00;;;;5066556;28;20234;-72
2022/01/19 08:03:10;;;;;;;25.07;12.67;;;;;4.90;101983.00;;;;5068459;28;20281;-72
2022/01/19 08:05:57;;;;;;;25.00;13.40;;;;;4.80;101978.00;;;;5065922;28;20232;-73
2022/01/19 08:08:43;;;;;;;22.07;11.63;;;;;5.00;101975.00;;;;5061603;28;20235;-71
2022/01/19 08:11:31;;;;;;;21.33;12.03;;;;;5.10;101981.00;;;;5082765;28;20738;-73
2022/01/19 08:14:18;;;;;;;25.40;13.10;;;;;5.10;101982.00;;;;5065707;28;20312;-71
2022/01/19 08:17:04;;;;;;;27.30;12.57;;;;;5.20;101967.00;;;;5055836;28;20242;-71
2022/01/19 08:19:50;;;;;;;24.57;12.10;;;;;5.10;101966.00;;;;5059305;28;20294;-73
2022/01/19 08:22:36;;;;;;;22.70;11.83;;;;;5.10;101967.00;;;;5077850;28;20238;-73
2022/01/19 08:25:22;;;;;;;23.97;12.63;;;;;5.10;101972.00;;;;5067974;28;20274;-73
2022/01/19 08:28:10;;;;;;;25.83;12.37;;;;;5.20;101970.00;;;;5068420;28;20239;-70
2022/01/19 08:30:56;;;;;;;23.53;12.27;;;;;5.20;101962.00;;;;5067354;28;20723;-71
2022/01/19 08:33:42;;;;;;;25.47;12.03;;;;;5.20;101962.00;;;;5066516;28;20238;-73
2022/01/19 08:36:28;;;;;;;24.43;11.83;;;;;5.10;101958.00;;;;5064730;28;20247;-75
2022/01/19 08:39:15;;;;;;;26.60;12.70;;;;;5.00;101955.00;;;;5065684;28;20345;-72
2022/01/19 08:42:02;;;;;;;27.33;12.93;;;;;4.90;101944.00;;;;5060865;28;20313;-73
2022/01/19 08:44:50;;;;;;;25.43;13.07;;;;;5.10;101930.00;;;;5066620;28;20227;-73
2022/01/19 08:47:38;;;;;;;30.90;14.57;;;;;5.20;101929.00;;;;5064469;28;24921;-73
2022/01/19 08:50:24;;;;;;;28.40;13.00;;;;;5.10;101932.00;;;;5071946;28;20227;-73
2022/01/19 08:53:11;;;;;;;28.63;14.03;;;;;5.10;101926.00;;;;5066392;28;20227;-74
2022/01/19 08:55:58;;;;;;;25.60;13.37;;;;;5.00;101942.00;;;;5067234;28;20227;-73
2022/01/19 08:58:44;;;;;;;32.90;14.80;;;;;4.90;101929.00;;;;5059336;28;20223;-71
2022/01/19 09:01:34;;;;;;;34.40;14.77;;;;;5.00;101929.00;;;;5065768;28;20227;-73
2022/01/19 09:04:20;;;;;;;25.77;13.40;;;;;5.00;101923.00;;;;5066920;28;20358;-72
2022/01/19 09:07:06;;;;;;;29.73;14.00;;;;;5.10;101915.00;;;;5066690;28;20247;-73
2022/01/19 09:09:53;;;;;;;28.23;12.67;;;;;5.00;101913.00;;;;5061744;28;20227;-72
2022/01/19 09:12:40;;;;;;;26.67;13.20;;;;;5.00;101870.00;;;;5066832;28;20224;-73
2022/01/19 09:15:27;;;;;;;29.37;14.60;;;;;5.20;101885.00;;;;5062951;28;20278;-74
2022/01/19 09:18:15;;;;;;;35.13;13.63;;;;;5.20;101885.00;;;;5066882;28;20366;-72
2022/01/19 09:21:01;;;;;;;30.13;13.63;;;;;5.10;101886.00;;;;5060384;28;20591;-73
2022/01/19 09:23:47;;;;;;;28.20;12.83;;;;;5.00;101839.00;;;;5066211;28;20265;-72
2022/01/19 09:26:34;;;;;;;26.03;13.13;;;;;4.90;101888.00;;;;5065691;28;20278;-73
2022/01/19 09:29:20;;;;;;;31.40;14.43;;;;;5.10;101893.00;;;;5066187;28;20235;-73
2022/01/19 09:32:08;;;;;;;31.60;14.90;;;;;5.10;101885.00;;;;5060957;28;20868;-73
2022/01/19 09:35:04;;;;;;;33.27;13.73;;;;;5.00;101882.00;;;;5060993;28;20918;-73
2022/01/19 09:37:51;;;;;;;33.57;14.23;;;;;5.10;101879.00;;;;5063142;28;20231;-73
2022/01/19 09:40:46;;;;;;;29.77;14.13;;;;;5.10;101887.00;;;;5059636;28;20228;-72
2022/01/19 09:43:32;;;;;;;30.50;14.17;;;;;5.20;101875.00;;;;5064893;28;20786;-74
2022/01/19 09:46:19;;;;;;;29.27;13.87;;;;;5.20;101873.00;;;;5065820;28;20243;-74
2022/01/19 09:49:06;;;;;;;28.93;14.10;;;;;5.10;101858.00;;;;5066463;28;20231;-73
2022/01/19 09:51:55;;;;;;;30.90;14.17;;;;;5.20;101860.00;;;;5065140;28;20230;-73
2022/01/19 09:54:41;;;;;;;32.73;15.87;;;;;5.20;101842.00;;;;5066213;28;20254;-74
2022/01/19 09:57:27;;;;;;;32.07;14.63;;;;;5.20;101845.00;;;;5053044;28;20270;-74
2022/01/19 10:00:14;;;;;;;30.47;14.97;;;;;5.20;101845.00;;;;5064681;28;20235;-74
2022/01/19 10:03:15;;;;;;;35.47;15.40;;;;;5.10;101833.00;;;;5058870;28;20309;-71
2022/01/19 10:06:07;;;;;;;30.27;14.37;;;;;5.00;101838.00;;;;5062055;28;20593;-72
2022/01/19 10:08:59;;;;;;;31.43;14.97;;;;;5.10;101843.00;;;;5063487;28;20219;-73
2022/01/19 10:18:11;;;;;;;31.47;14.07;;;;;5.10;101830.00;;;;5064790;28;20318;-74
2022/01/19 10:21:16;;;;;;;26.77;13.20;;;;;5.10;101828.00;;;;5058270;28;21017;-74
2022/01/19 10:24:12;;;;;;;27.10;13.80;;;;;5.10;101823.00;;;;5064624;28;20296;-72
2022/01/19 10:27:17;;;;;;;29.63;14.30;;;;;5.10;101826.00;;;;5059001;28;20224;-72
2022/01/19 10:30:25;;;;;;;25.43;12.73;;;;;4.90;101823.00;;;;5060706;28;20994;-72
2022/01/19 10:33:17;;;;;;;28.87;13.83;;;;;4.80;101821.00;;;;5059647;28;20267;-75
2022/01/19 10:36:04;;;;;;;29.77;14.07;;;;;4.80;101808.00;;;;5063638;28;20223;-73
2022/01/19 10:38:57;;;;;;;28.13;13.63;;;;;5.00;101815.00;;;;5057153;28;20258;-73
2022/01/19 10:42:06;;;;;;;31.67;13.73;;;;;5.00;101809.00;;;;5063719;28;20820;-73
2022/01/19 10:44:54;;;;;;;29.17;14.00;;;;;4.90;101799.00;;;;5063172;28;20656;-72
2022/01/19 10:47:56;;;;;;;27.30;13.50;;;;;5.00;101808.00;;;;5059536;28;20231;-76
2022/01/19 10:50:44;;;;;;;25.50;13.00;;;;;4.90;101798.00;;;;5063962;28;20228;-72
2022/01/19 10:53:30;;;;;;;29.17;13.97;;;;;5.10;101787.00;;;;5063445;28;20623;-72
2022/01/19 10:56:28;;;;;;;26.13;12.90;;;;;5.00;101779.00;;;;5064213;28;20367;-73
2022/01/19 10:59:18;;;;;;;26.10;13.53;;;;;5.10;101786.00;;;;5059848;28;20302;-72
2022/01/19 11:02:04;;;;;;;28.10;13.43;;;;;5.20;101788.00;;;;5061902;28;20733;-72
2022/01/19 11:04:51;;;;;;;24.80;13.27;;;;;5.10;101786.00;;;;5057977;28;20227;-73
2022/01/19 11:07:38;;;;;;;26.70;13.73;;;;;5.30;101765.00;;;;5063256;28;20231;-72
2022/01/19 11:10:25;;;;;;;26.20;13.07;;;;;5.20;101773.00;;;;5064623;28;20231;-74
2022/01/19 11:13:14;;;;;;;24.53;12.47;;;;;5.20;101761.00;;;;5064408;28;20232;-73
2022/01/19 11:16:04;;;;;;;24.17;13.07;;;;;5.20;101754.00;;;;5058948;28;20984;-73
2022/01/19 11:18:50;;;;;;;25.60;13.27;;;;;5.30;101739.00;;;;5061203;28;20287;-71
2022/01/19 11:21:50;;;;;;;28.07;13.33;;;;;5.30;101716.00;;;;5064180;28;20236;-73
2022/01/19 11:24:48;;;;;;;26.90;13.10;;;;;5.30;101719.00;;;;5062873;28;20231;-73
2022/01/19 11:27:40;;;;;;;24.67;13.17;;;;;5.20;101720.00;;;;5064221;28;20224;-72
2022/01/19 11:30:29;;;;;;;25.60;13.53;;;;;5.20;101730.00;;;;5057496;28;20584;-73
2022/01/19 11:33:24;;;;;;;26.10;13.37;;;;;5.40;101726.00;;;;5063865;28;20371;-73
2022/01/19 11:36:22;;;;;;;24.47;12.20;;;;;5.30;101714.00;;;;5060970;28;20228;-72
2022/01/19 11:39:11;;;;;;;25.00;12.53;;;;;5.30;101695.00;;;;5059286;28;20232;-74
2022/01/19 11:41:58;;;;;;;27.53;14.17;;;;;5.30;101703.00;;;;5057135;28;20231;-73
2022/01/19 11:44:45;;;;;;;24.83;12.57;;;;;5.20;101711.00;;;;5061465;28;20586;-74
2022/01/19 11:47:31;;;;;;;29.70;14.33;;;;;5.30;101696.00;;;;5064233;28;20289;-74
2022/01/19 11:50:22;;;;;;;26.77;13.63;;;;;5.40;101677.00;;;;5064023;28;20235;-75
2022/01/19 11:53:11;;;;;;;25.87;12.87;;;;;5.40;101677.00;;;;5059086;28;20250;-75
2022/01/19 11:56:03;;;;;;;26.73;13.07;;;;;5.20;101678.00;;;;5058195;28;20238;-74
2022/01/19 11:59:03;;;;;;;27.77;14.37;;;;;5.20;101680.00;;;;5063191;28;20239;-74
2022/01/19 12:01:50;;;;;;;27.03;12.63;;;;;5.20;101674.00;;;;5058914;28;20800;-73
2022/01/19 12:04:38;;;;;;;25.60;13.37;;;;;5.10;101651.00;;;;5063316;28;20235;-73
2022/01/19 12:07:37;;;;;;;28.23;13.87;;;;;5.10;101652.00;;;;5063360;28;20706;-73
2022/01/19 12:10:43;;;;;;;30.37;14.37;;;;;5.20;101644.00;;;;5063957;28;20774;-72
2022/01/19 12:13:57;;;;;;;27.17;14.00;;;;;5.10;101631.00;;;;5063458;28;20228;-71
2022/01/19 12:16:55;;;;;;;28.47;13.27;;;;;5.20;101627.00;;;;5063749;28;20232;-72
2022/01/19 12:19:43;;;;;;;29.73;13.87;;;;;5.20;101608.00;;;;5063908;28;20319;-71
2022/01/19 12:22:34;;;;;;;31.00;13.93;;;;;5.20;101560.00;;;;5063531;28;20310;-74
2022/01/19 12:25:22;;;;;;;28.20;14.67;;;;;5.10;101598.00;;;;5062943;28;20314;-71
2022/01/19 12:28:08;;;;;;;29.97;14.90;;;;;5.20;101615.00;;;;5063325;28;20810;-74
2022/01/19 12:30:55;;;;;;;32.03;14.10;;;;;5.10;101598.00;;;;5056457;28;20927;-71
2022/01/19 12:34:20;;;;;;;26.87;13.13;;;;;5.20;101599.00;;;;5064894;28;20241;-74
2022/01/19 12:37:07;;;;;;;26.97;13.60;;;;;5.30;101586.00;;;;5062430;28;20243;-73
2022/01/19 12:39:54;;;;;;;29.63;14.83;;;;;5.30;101581.00;;;;5055496;28;20358;-73
2022/01/19 12:42:44;;;;;;;26.77;14.57;;;;;5.30;101581.00;;;;5068068;28;20231;-72
2022/01/19 12:45:33;;;;;;;24.37;13.20;;;;;5.20;101572.00;;;;5068583;28;20224;-69
2022/01/19 12:48:47;;;;;;;29.53;13.63;;;;;5.50;101572.00;;;;5068707;28;20339;-74
2022/01/19 12:51:42;;;;;;;26.63;13.03;;;;;5.40;101570.00;;;;5067664;28;20228;-73
2022/01/19 12:54:30;;;;;;;25.73;14.10;;;;;5.30;101573.00;;;;5068676;28;20358;-73
2022/01/19 12:57:18;;;;;;;29.63;14.10;;;;;5.30;101577.00;;;;5064843;28;20255;-74
2022/01/19 13:00:09;;;;;;;25.43;13.50;;;;;5.30;101557.00;;;;5066197;28;20601;-73
2022/01/19 13:02:57;;;;;;;28.47;14.47;;;;;5.20;101561.00;;;;5058062;28;20312;-72
2022/01/19 13:05:50;;;;;;;29.77;13.33;;;;;5.30;101566.00;;;;5070828;28;20315;-73
2022/01/19 13:08:42;;;;;;;27.57;14.37;;;;;5.30;101536.00;;;;5061475;28;20239;-74
2022/01/19 13:11:36;;;;;;;25.47;12.73;;;;;5.30;101551.00;;;;5060943;28;20231;-76
2022/01/19 13:14:24;;;;;;;27.67;13.33;;;;;5.30;101549.00;;;;5068398;28;20305;-76
2022/01/19 13:17:12;;;;;;;23.87;12.43;;;;;5.20;101539.00;;;;5067834;28;20227;-74
2022/01/19 13:20:20;;;;;;;26.93;13.87;;;;;5.30;101542.00;;;;5074177;28;20244;-74
2022/01/19 13:23:10;;;;;;;22.87;12.60;;;;;5.10;101520.00;;;;5077580;28;20421;-76
2022/01/19 13:25:59;;;;;;;25.77;13.17;;;;;5.10;101523.00;;;;5075327;28;20236;-73
2022/01/19 13:28:45;;;;;;;25.27;13.13;;;;;5.10;101510.00;;;;5079395;28;20231;-73
2022/01/19 13:31:31;;;;;;;27.23;14.30;;;;;5.30;101502.00;;;;5077830;28;20275;-72
2022/01/19 13:34:19;;;;;;;26.93;12.20;;;;;5.30;101485.00;;;;5079009;28;20263;-72
2022/01/19 13:37:05;;;;;;;26.63;12.83;;;;;5.30;101486.00;;;;5075651;28;20224;-72
2022/01/19 13:39:57;;;;;;;26.47;13.00;;;;;5.10;101468.00;;;;5068269;28;20301;-72
2022/01/19 13:42:47;;;;;;;29.53;14.10;;;;;5.10;101477.00;;;;5068073;28;20231;-73
2022/01/19 13:45:48;;;;;;;23.53;13.33;;;;;5.10;101472.00;;;;5066222;28;20692;-73
2022/01/19 13:48:34;;;;;;;28.93;13.83;;;;;5.20;101466.00;;;;5065715;28;20231;-73
2022/01/19 13:51:24;;;;;;;28.47;13.87;;;;;5.20;101465.00;;;;5077346;28;20400;-72
2022/01/19 13:54:10;;;;;;;30.03;14.53;;;;;5.20;101468.00;;;;5067561;28;20240;-74
2022/01/19 13:56:59;;;;;;;27.00;13.50;;;;;5.20;101461.00;;;;5063221;28;20286;-70
2022/01/19 13:59:46;;;;;;;25.67;13.20;;;;;5.30;101454.00;;;;5057801;28;20228;-72
2022/01/19 14:02:32;;;;;;;26.43;13.17;;;;;5.10;101451.00;;;;5065612;28;20818;-75
2022/01/19 14:05:42;;;;;;;24.87;12.87;;;;;5.20;101427.00;;;;5058220;28;20970;-73
2022/01/19 14:08:31;;;;;;;26.30;13.33;;;;;5.20;101451.00;;;;5065677;28;20747;-70
2022/01/19 14:11:24;;;;;;;27.37;13.50;;;;;5.10;101451.00;;;;5061460;28;20363;-72
2022/01/19 14:14:12;;;;;;;23.60;12.33;;;;;5.10;101434.00;;;;5063665;28;20731;-73
2022/01/19 14:16:59;;;;;;;27.20;12.63;;;;;5.30;101436.00;;;;5069413;28;20228;-70
2022/01/19 14:19:51;;;;;;;23.70;12.37;;;;;5.30;101427.00;;;;5059929;28;20228;-74
2022/01/19 14:22:39;;;;;;;27.93;12.93;;;;;5.20;101428.00;;;;5059343;28;20235;-73
2022/01/19 14:25:27;;;;;;;27.53;13.17;;;;;5.30;101423.00;;;;5061898;28;20785;-73
2022/01/19 14:28:15;;;;;;;25.80;13.07;;;;;5.40;101416.00;;;;5077604;28;20230;-74
2022/01/19 14:31:03;;;;;;;25.77;13.43;;;;;5.40;101419.00;;;;5060063;28;20256;-73
2022/01/19 14:34:02;;;;;;;31.90;15.07;;;;;5.40;101407.00;;;;5062233;28;20806;-76
2022/01/19 14:36:48;;;;;;;28.53;14.80;;;;;5.40;101412.00;;;;5058495;28;20741;-72
2022/01/19 14:39:46;;;;;;;29.63;14.80;;;;;5.30;101405.00;;;;5065309;28;20231;-71
2022/01/19 14:42:38;;;;;;;33.47;15.80;;;;;5.30;101403.00;;;;5057039;28;20244;-72
2022/01/19 14:45:34;;;;;;;34.40;15.10;;;;;5.40;101406.00;;;;5058413;28;20279;-71
2022/01/19 14:48:24;;;;;;;36.43;15.90;;;;;5.30;101406.00;;;;5057024;28;20213;-72
2022/01/19 14:51:19;;;;;;;33.20;15.43;;;;;5.30;101402.00;;;;5058601;28;20205;-71
2022/01/19 14:54:08;;;;;;;34.47;17.17;;;;;5.30;101392.00;;;;5058724;28;20302;-73